Time;durP1;ratioP1;P1;durP2;ratioP2;P2;SDS_P1;SDS_P2;PMS_P1;PMS_P2;Temp;Humidity;BMP_temperature;BMP_pressure;BME280_temperature;BME280_humidity;BME280_pressure;Samples;Min_cycle;Max_cycle;Signal;HPM_P1;HPM_P2
2021/04/13 00:01:33;;;;;;;4.32;1.15;;;;;;;11.26;68.47;100448.59;5009883;28;20478;-69
2021/04/13 00:04:04;;;;;;;1.02;0.80;;;;;;;11.39;68.40;100448.81;5007593;28;20046;-69
2021/04/13 00:06:42;;;;;;;2.88;1.00;;;;;;;11.39;67.77;100438.38;5009674;28;20133;-68
2021/04/13 00:09:19;;;;;;;1.38;1.10;;;;;;;11.39;67.47;100439.22;5008314;28;20062;-68
2021/04/13 00:11:48;;;;;;;1.15;0.82;;;;;;;11.20;68.17;100441.06;5009184;28;20129;-69
2021/04/13 00:14:19;;;;;;;0.93;0.93;;;;;;;11.17;68.13;100439.44;5007452;28;20077;-68
2021/04/13 00:16:47;;;;;;;1.10;1.00;;;;;;;11.33;67.66;100436.06;5008212;28;20056;-68
2021/04/13 00:19:17;;;;;;;0.90;0.80;;;;;;;11.18;67.86;100437.69;5009064;28;20117;-69
2021/04/13 00:21:44;;;;;;;1.00;0.90;;;;;;;11.12;68.29;100444.03;5013009;28;20070;-69
2021/04/13 00:24:18;;;;;;;0.80;0.80;;;;;;;11.22;67.26;100437.44;5008685;28;20164;-69
2021/04/13 00:26:51;;;;;;;1.20;1.05;;;;;;;11.30;66.04;100431.88;5009648;28;20071;-69
2021/04/13 00:29:21;;;;;;;0.80;0.80;;;;;;;11.15;66.35;100430.00;5011742;28;20042;-69
2021/04/13 00:31:49;;;;;;;0.85;0.85;;;;;;;11.14;65.71;100439.63;5011305;28;20073;-68
2021/04/13 00:34:26;;;;;;;0.70;0.70;;;;;;;11.05;65.82;100436.59;5012472;28;20065;-69
2021/04/13 00:37:08;;;;;;;0.80;0.80;;;;;;;11.05;66.31;100442.66;5010731;28;20647;-69
2021/04/13 00:39:35;;;;;;;0.73;0.73;;;;;;;11.11;65.80;100434.53;5011956;28;20045;-69
2021/04/13 00:42:12;;;;;;;0.75;0.75;;;;;;;11.13;64.96;100440.53;5003350;28;20455;-69
2021/04/13 00:44:49;;;;;;;0.70;0.70;;;;;;;11.01;65.49;100451.53;5011205;28;20044;-69
2021/04/13 00:47:30;;;;;;;0.70;0.70;;;;;;;11.08;64.46;100457.31;5011105;28;20474;-69
2021/04/13 00:49:59;;;;;;;2.25;1.00;;;;;;;11.06;64.35;100465.22;5012436;28;20053;-69
2021/04/13 00:52:35;;;;;;;0.80;0.80;;;;;;;11.08;64.67;100462.53;5010640;28;20504;-69
2021/04/13 00:55:06;;;;;;;0.80;0.80;;;;;;;10.88;65.26;100466.13;5012057;28;20515;-69
2021/04/13 00:57:39;;;;;;;0.60;0.60;;;;;;;10.90;65.04;100464.25;5011093;28;20098;-68
2021/04/13 01:00:08;;;;;;;1.42;1.33;;;;;;;10.89;64.90;100463.41;5012414;28;20050;-69
2021/04/13 01:02:35;;;;;;;1.23;0.80;;;;;;;11.06;64.72;100457.38;5010440;28;20066;-69
2021/04/13 01:05:20;;;;;;;0.80;0.80;;;;;;;10.97;64.98;100460.44;5012016;28;20103;-68
2021/04/13 01:07:53;;;;;;;0.80;0.80;;;;;;;10.90;65.57;100456.44;5008015;28;20098;-69
2021/04/13 01:10:30;;;;;;;0.68;0.65;;;;;;;10.93;64.98;100461.53;4998117;28;20038;-69
2021/04/13 01:13:09;;;;;;;1.40;0.70;;;;;;;10.94;64.99;100458.84;4991199;28;20053;-69
2021/04/13 01:15:38;;;;;;;0.88;0.80;;;;;;;10.88;66.08;100469.56;5003150;28;20061;-68
2021/04/13 01:18:11;;;;;;;0.73;0.73;;;;;;;10.98;65.26;100468.22;5010860;28;20124;-68
2021/04/13 01:20:54;;;;;;;1.08;1.00;;;;;;;10.94;65.17;100471.88;5009895;28;20135;-69
2021/04/13 01:23:32;;;;;;;2.22;0.70;;;;;;;10.98;65.66;100483.84;5010916;28;20586;-69
2021/04/13 01:26:02;;;;;;;0.80;0.80;;;;;;;10.93;64.88;100470.19;5010693;28;20034;-69
2021/04/13 01:28:31;;;;;;;1.58;0.90;;;;;;;10.81;65.68;100470.75;5011457;28;20091;-69
2021/04/13 01:31:42;;;;;;;2.67;0.77;;;;;;;10.85;65.92;100468.84;5009853;28;20041;-69
2021/04/13 01:34:24;;;;;;;0.70;0.70;;;;;;;10.84;64.89;100464.56;5010355;28;20497;-69
2021/04/13 01:37:34;;;;;;;1.20;0.80;;;;;;;10.94;65.06;100473.63;5010117;28;20070;-69
2021/04/13 01:40:22;;;;;;;2.15;0.63;;;;;;;10.91;64.36;100481.59;5011756;28;20081;-69
2021/04/13 01:42:50;;;;;;;1.00;0.80;;;;;;;10.68;66.46;100482.69;5009702;28;20121;-69
2021/04/13 01:45:22;;;;;;;0.60;0.60;;;;;;;10.71;66.03;100485.16;5011748;28;20046;-69
2021/04/13 01:47:50;;;;;;;0.73;0.73;;;;;;;10.82;65.68;100493.31;5009896;28;20038;-69
2021/04/13 01:50:25;;;;;;;0.65;0.65;;;;;;;10.72;66.71;100490.31;5011820;28;20091;-69
2021/04/13 01:53:01;;;;;;;0.80;0.70;;;;;;;10.62;66.84;100496.84;5009613;28;20129;-69
2021/04/13 01:55:30;;;;;;;0.70;0.70;;;;;;;10.56;67.82;100501.50;5010556;28;20468;-69
2021/04/13 01:58:06;;;;;;;1.02;1.02;;;;;;;10.74;66.63;100511.91;5009824;28;20070;-69
2021/04/13 02:00:38;;;;;;;1.95;0.80;;;;;;;10.74;66.31;100517.13;5011613;28;20125;-68
2021/04/13 02:03:13;;;;;;;0.70;0.70;;;;;;;10.60;65.63;100523.91;5009194;28;20046;-69
2021/04/13 02:05:45;;;;;;;0.70;0.70;;;;;;;10.61;65.62;100516.03;5011479;28;20070;-69
2021/04/13 02:08:31;;;;;;;8.82;1.13;;;;;;;10.54;65.78;100514.59;5008972;28;20133;-69
2021/04/13 02:11:03;;;;;;;0.77;0.77;;;;;;;10.61;66.39;100526.44;5010999;28;20496;-69
2021/04/13 02:13:34;;;;;;;0.80;0.80;;;;;;;10.50;67.76;100528.69;5009327;28;20609;-69
2021/04/13 02:16:09;;;;;;;1.02;0.77;;;;;;;10.60;67.49;100539.53;5011110;28;20058;-69
2021/04/13 02:18:46;;;;;;;1.40;0.80;;;;;;;10.55;67.30;100537.16;5010431;28;20070;-69
2021/04/13 02:21:15;;;;;;;1.10;1.00;;;;;;;10.54;67.80;100539.81;5011372;28;20046;-69
2021/04/13 02:23:45;;;;;;;0.70;0.70;;;;;;;10.48;67.33;100548.75;5009284;28;20126;-69
2021/04/13 02:26:13;;;;;;;2.10;0.70;;;;;;;10.40;67.42;100558.69;5008274;28;20116;-69
2021/04/13 02:28:41;;;;;;;2.90;0.80;;;;;;;10.29;68.47;100555.72;5009668;28;20046;-70
2021/04/13 02:31:10;;;;;;;0.70;0.70;;;;;;;10.26;69.68;100551.47;5008746;28;20446;-70
2021/04/13 02:33:39;;;;;;;3.28;0.88;;;;;;;10.32;69.00;100555.56;5009953;28;20054;-70
2021/04/13 02:36:27;;;;;;;0.80;0.80;;;;;;;10.46;68.56;100564.47;5009261;28;20129;-69
2021/04/13 02:38:55;;;;;;;1.40;0.90;;;;;;;10.32;68.45;100559.00;5010440;28;20129;-69
2021/04/13 02:41:28;;;;;;;1.98;1.88;;;;;;;10.28;69.74;100562.69;5008361;28;20077;-69
2021/04/13 02:43:56;;;;;;;1.55;0.80;;;;;;;10.38;68.27;100561.34;5010041;28;20046;-69
2021/04/13 02:46:31;;;;;;;0.80;0.80;;;;;;;10.39;68.32;100557.00;5009106;28;20120;-69
2021/04/13 02:49:11;;;;;;;1.35;1.27;;;;;;;10.25;69.31;100568.03;5009950;28;20043;-69
2021/04/13 02:51:42;;;;;;;1.25;1.25;;;;;;;10.34;69.44;100562.41;5006415;28;20050;-69
2021/04/13 02:54:21;;;;;;;3.05;0.80;;;;;;;10.47;68.26;100567.94;4990311;28;20108;-70
2021/04/13 02:56:51;;;;;;;1.35;1.00;;;;;;;10.46;68.20;100569.69;4993562;28;20045;-70
2021/04/13 02:59:17;;;;;;;1.38;0.90;;;;;;;10.57;68.29;100568.38;5010259;28;20061;-69
2021/04/13 03:01:44;;;;;;;0.90;0.90;;;;;;;10.42;69.24;100573.34;5009342;28;20095;-70
2021/04/13 03:04:11;;;;;;;0.82;0.82;;;;;;;10.39;68.89;100573.50;5009706;28;20389;-69
2021/04/13 03:06:48;;;;;;;1.00;0.90;;;;;;;10.52;68.56;100584.22;5007733;28;20675;-69
2021/04/13 03:09:17;;;;;;;3.08;1.00;;;;;;;10.56;68.36;100584.94;5010386;28;20046;-70
2021/04/13 03:11:59;;;;;;;5.53;1.15;;;;;;;10.57;68.67;100586.63;5008876;28;20046;-70
2021/04/13 03:14:31;;;;;;;2.20;1.00;;;;;;;10.38;69.56;100586.56;5008280;28;20045;-70
2021/04/13 03:16:58;;;;;;;3.05;1.13;;;;;;;10.27;70.06;100581.81;5000893;28;20073;-69
2021/04/13 03:19:28;;;;;;;1.10;1.10;;;;;;;10.44;69.42;100587.16;5008092;28;20097;-70
2021/04/13 03:22:00;;;;;;;1.17;1.08;;;;;;;10.48;69.62;100588.69;5006483;28;20120;-69
2021/04/13 03:24:33;;;;;;;1.92;1.02;;;;;;;10.53;69.60;100585.91;5007843;28;20038;-70
2021/04/13 03:27:02;;;;;;;1.73;1.60;;;;;;;10.43;69.45;100582.84;5007408;28;20072;-69
2021/04/13 03:29:47;;;;;;;1.42;1.33;;;;;;;10.40;69.33;100587.38;5004392;28;20046;-69
2021/04/13 03:32:15;;;;;;;;;;;;;;;10.46;69.05;100594.91;4999495;28;20504;-70
2021/04/13 03:34:42;;;;;;;1.13;1.02;;;;;;;10.38;69.05;100595.22;5008276;28;19971;-70
2021/04/13 03:37:11;;;;;;;4.55;1.20;;;;;;;10.48;69.35;100600.88;5008451;28;20065;-69
2021/04/13 03:39:41;;;;;;;0.70;0.70;;;;;;;10.25;70.14;100604.50;5009090;28;20433;-69
2021/04/13 03:42:13;;;;;;;0.90;0.90;;;;;;;10.38;69.75;100608.25;5009268;28;20088;-69
2021/04/13 03:44:40;;;;;;;1.50;0.90;;;;;;;10.36;69.60;100602.28;5009403;28;20042;-69
2021/04/13 03:47:14;;;;;;;2.05;1.00;;;;;;;10.19;70.56;100602.13;5008813;28;20038;-70
2021/04/13 03:49:42;;;;;;;2.90;1.10;;;;;;;10.27;70.05;100596.63;5008151;28;20632;-70
2021/04/13 03:52:22;;;;;;;2.55;1.00;;;;;;;10.26;70.53;100608.78;5008968;28;20072;-70
2021/04/13 03:54:49;;;;;;;0.98;0.98;;;;;;;10.18;70.76;100598.69;5008913;28;20050;-69
2021/04/13 03:57:32;;;;;;;2.08;1.08;;;;;;;10.33;69.78;100598.94;5010276;28;20121;-69
2021/04/13 04:00:00;;;;;;;0.82;0.80;;;;;;;10.36;69.61;100606.66;5010177;28;20077;-70
2021/04/13 04:02:27;;;;;;;1.23;1.13;;;;;;;10.41;69.27;100613.34;5008135;28;20069;-69
2021/04/13 04:05:14;;;;;;;0.90;0.90;;;;;;;10.20;70.97;100614.25;5009477;28;20046;-69
2021/04/13 04:08:03;;;;;;;1.20;1.10;;;;;;;10.26;70.30;100619.22;5008095;28;20583;-69
2021/04/13 04:10:41;;;;;;;1.25;1.15;;;;;;;10.29;69.56;100626.06;5009391;28;20045;-69
2021/04/13 04:13:15;;;;;;;1.25;1.10;;;;;;;10.25;69.78;100630.56;5007175;28;20069;-69
2021/04/13 04:16:01;;;;;;;1.33;1.20;;;;;;;10.18;69.27;100632.53;5024676;28;20504;-69
2021/04/13 04:18:51;;;;;;;1.80;1.70;;;;;;;10.12;69.38;100639.75;5009352;28;20103;-69
2021/04/13 04:21:20;;;;;;;2.40;1.48;;;;;;;10.16;70.60;100638.72;5006321;28;20038;-69
2021/04/13 04:23:54;;;;;;;1.05;1.00;;;;;;;9.91;71.33;100649.31;5008939;28;20046;-70
2021/04/13 04:26:24;;;;;;;4.80;1.55;;;;;;;10.00;72.22;100648.09;5008857;28;20046;-71
2021/04/13 04:28:51;;;;;;;1.60;1.50;;;;;;;9.88;71.65;100646.84;5007679;28;20638;-69
2021/04/13 04:31:35;;;;;;;1.35;1.25;;;;;;;9.93;71.62;100653.53;5007806;28;20489;-68
2021/04/13 04:34:15;;;;;;;2.78;2.13;;;;;;;9.88;72.22;100660.69;5007683;28;20079;-70
2021/04/13 04:36:47;;;;;;;1.60;1.50;;;;;;;9.49;73.71;100667.50;5007106;28;20057;-69
2021/04/13 04:39:22;;;;;;;2.45;1.40;;;;;;;9.61;74.54;100667.84;5001240;28;20541;-72
2021/04/13 04:41:49;;;;;;;1.52;1.42;;;;;;;9.65;74.83;100672.03;5007228;28;20054;-71
2021/04/13 04:44:24;;;;;;;3.85;1.52;;;;;;;9.69;74.24;100665.81;5007759;28;20561;-70
2021/04/13 04:46:53;;;;;;;4.07;1.40;;;;;;;9.75;74.63;100675.13;5007691;28;20050;-70
2021/04/13 04:49:20;;;;;;;1.45;1.35;;;;;;;9.80;74.81;100672.31;5007970;28;20492;-70
2021/04/13 04:51:49;;;;;;;1.85;1.70;;;;;;;10.08;73.58;100662.50;5006233;28;20070;-70
2021/04/13 04:54:16;;;;;;;1.73;1.60;;;;;;;10.18;72.33;100662.97;5007043;28;20038;-70
2021/04/13 04:56:42;;;;;;;1.60;1.50;;;;;;;9.90;71.51;100671.88;5008278;28;20470;-70
2021/04/13 04:59:09;;;;;;;2.08;1.90;;;;;;;9.89;72.45;100682.38;5007898;28;20066;-70
2021/04/13 05:01:35;;;;;;;2.10;2.00;;;;;;;9.91;73.25;100675.38;5006994;28;20102;-70
2021/04/13 05:04:02;;;;;;;3.63;2.05;;;;;;;10.02;72.74;100678.38;5004988;28;20464;-70
2021/04/13 05:06:30;;;;;;;1.85;1.75;;;;;;;10.10;72.39;100678.06;5009950;28;20129;-69
2021/04/13 05:08:56;;;;;;;1.60;1.50;;;;;;;10.04;71.90;100686.13;5008659;28;20507;-70
2021/04/13 05:11:24;;;;;;;2.10;2.00;;;;;;;9.97;72.96;100681.16;5006749;28;20049;-68
2021/04/13 05:13:51;;;;;;;4.10;2.15;;;;;;;10.09;72.46;100686.78;5009908;28;20081;-69
2021/04/13 05:16:19;;;;;;;2.00;1.90;;;;;;;10.18;70.95;100687.25;5003160;28;20064;-68
2021/04/13 05:18:45;;;;;;;2.20;2.00;;;;;;;10.15;70.71;100686.53;5001495;28;20054;-70
2021/04/13 05:21:12;;;;;;;3.13;2.42;;;;;;;10.25;69.81;100695.69;5008309;28;20107;-69
2021/04/13 05:23:38;;;;;;;3.08;2.75;;;;;;;10.12;70.37;100689.25;5008538;28;20073;-70
2021/04/13 05:26:05;;;;;;;3.20;2.63;;;;;;;10.02;72.29;100693.16;5009155;28;20493;-70
2021/04/13 05:28:33;;;;;;;2.65;2.45;;;;;;;10.10;72.01;100691.06;5009795;28;20087;-71
2021/04/13 05:30:59;;;;;;;1.95;1.85;;;;;;;10.10;72.61;100701.50;5007279;28;20042;-71
2021/04/13 05:33:26;;;;;;;1.77;1.67;;;;;;;10.03;71.38;100705.28;5007490;28;20115;-69
2021/04/13 05:35:54;;;;;;;2.25;2.05;;;;;;;9.90;72.38;100704.91;5003707;28;20042;-71
2021/04/13 05:38:30;;;;;;;2.40;1.50;;;;;;;10.15;69.85;100705.59;5009580;28;20043;-71
2021/04/13 05:41:01;;;;;;;2.75;1.60;;;;;;;10.11;69.32;100717.06;5008661;28;20038;-70
2021/04/13 05:43:27;;;;;;;1.20;1.10;;;;;;;10.09;67.85;100718.03;5019967;28;20126;-70
2021/04/13 05:45:58;;;;;;;1.65;1.55;;;;;;;10.21;69.06;100720.13;4999388;28;20046;-70
2021/04/13 05:48:25;;;;;;;2.72;2.08;;;;;;;10.22;70.36;100732.25;4997516;28;20042;-68
2021/04/13 05:50:52;;;;;;;1.48;1.38;;;;;;;10.15;69.40;100729.06;4996273;28;20080;-68
2021/04/13 05:53:18;;;;;;;1.67;1.58;;;;;;;10.19;70.97;100732.41;4999468;28;20125;-70
2021/04/13 05:55:45;;;;;;;1.60;1.50;;;;;;;10.17;69.87;100731.59;4994929;28;20043;-71
2021/04/13 05:58:16;;;;;;;1.30;1.30;;;;;;;10.00;70.61;100734.03;5003082;28;20038;-75
2021/04/13 06:00:47;;;;;;;1.70;1.60;;;;;;;10.07;68.90;100740.72;5006236;28;20053;-72
2021/04/13 06:03:16;;;;;;;2.97;1.50;;;;;;;10.20;69.67;100740.13;4997050;28;20046;-78
2021/04/13 06:05:43;;;;;;;1.65;1.23;;;;;;;10.16;70.52;100743.78;5007334;28;20169;-80
2021/04/13 06:08:11;;;;;;;1.50;1.40;;;;;;;10.20;71.49;100744.50;5006133;28;20054;-79
2021/04/13 06:10:38;;;;;;;2.05;1.30;;;;;;;10.17;68.56;100749.81;5002733;28;20439;-78
2021/04/13 06:13:06;;;;;;;2.40;0.80;;;;;;;10.13;67.28;100745.66;4997589;28;20054;-77
2021/04/13 06:15:34;;;;;;;1.38;1.27;;;;;;;10.08;68.86;100756.28;5005445;28;20117;-79
2021/04/13 06:18:01;;;;;;;1.10;1.00;;;;;;;10.18;68.37;100756.75;4996390;28;20161;-73
2021/04/13 06:20:30;;;;;;;1.30;1.20;;;;;;;9.94;71.41;100764.63;4994484;28;20046;-71
2021/04/13 06:23:00;;;;;;;1.42;1.33;;;;;;;10.10;71.77;100767.47;4996764;28;20038;-75
2021/04/13 06:25:29;;;;;;;1.55;1.40;;;;;;;10.30;71.54;100766.72;4994428;28;20079;-75
2021/04/13 06:27:57;;;;;;;1.02;1.02;;;;;;;10.28;71.34;100771.16;4998714;28;20050;-75
2021/04/13 06:30:25;;;;;;;2.50;1.13;;;;;;;10.23;71.36;100778.25;5002522;28;20045;-75
2021/04/13 06:32:53;;;;;;;1.60;1.10;;;;;;;10.23;71.69;100776.53;5013919;28;20070;-75
2021/04/13 06:35:22;;;;;;;2.47;1.45;;;;;;;10.21;72.20;100782.66;4995908;28;20046;-68
2021/04/13 06:37:51;;;;;;;1.17;1.17;;;;;;;10.13;71.09;100777.78;4984828;28;20108;-67
2021/04/13 06:40:51;;;;;;;3.75;1.20;;;;;;;10.13;73.24;100787.34;4993645;28;20042;-67
2021/04/13 06:44:01;;;;;;;3.08;1.50;;;;;;;10.24;73.98;100790.41;5088476;28;20042;-69
2021/04/13 06:47:04;;;;;;;1.60;1.50;;;;;;;10.43;70.22;100783.53;5001818;28;20054;-72
2021/04/13 06:50:00;;;;;;;1.95;1.85;;;;;;;10.12;73.66;100796.06;4999844;28;20061;-66
2021/04/13 06:52:32;;;;;;;1.23;1.13;;;;;;;10.24;71.32;100798.22;5001242;28;20185;-67
2021/04/13 06:55:11;;;;;;;1.85;1.75;;;;;;;10.10;72.17;100800.47;4996014;28;20457;-66
2021/04/13 06:58:09;;;;;;;2.47;1.70;;;;;;;10.18;70.54;100799.28;5010264;28;20069;-66
2021/04/13 07:01:08;;;;;;;2.33;2.13;;;;;;;10.22;70.70;100802.59;5008323;28;20058;-67
2021/04/13 07:03:49;;;;;;;2.50;2.30;;;;;;;10.27;71.45;100802.44;5005462;28;20178;-67
2021/04/13 07:06:27;;;;;;;2.92;2.70;;;;;;;10.05;72.04;100810.22;5009077;28;20038;-70
2021/04/13 07:09:07;;;;;;;2.53;2.35;;;;;;;9.97;72.10;100808.78;5077011;28;20046;-71
2021/04/13 07:11:58;;;;;;;2.67;2.00;;;;;;;10.05;71.73;100807.63;4998948;28;20091;-68
2021/04/13 07:14:43;;;;;;;2.50;2.13;;;;;;;10.09;72.10;100812.66;5006469;28;20048;-70
2021/04/13 07:17:17;;;;;;;3.13;2.28;;;;;;;9.89;72.24;100813.41;5007384;28;20092;-69
2021/04/13 07:20:13;;;;;;;1.92;1.83;;;;;;;9.81;73.17;100812.88;5004868;28;20416;-71
2021/04/13 07:22:50;;;;;;;4.82;1.63;;;;;;;9.98;72.89;100813.09;5000130;28;20118;-68
2021/04/13 07:25:22;;;;;;;1.10;1.10;;;;;;;9.97;72.26;100811.38;5008584;28;20046;-73
2021/04/13 07:28:20;;;;;;;2.10;1.00;;;;;;;10.07;71.83;100816.25;5007589;28;20046;-69
2021/04/13 07:31:15;;;;;;;0.95;0.80;;;;;;;9.84;71.97;100828.38;5020362;28;20146;-69
2021/04/13 07:33:46;;;;;;;0.70;0.70;;;;;;;9.87;72.01;100832.63;5008560;28;20088;-68
2021/04/13 07:36:23;;;;;;;0.98;0.98;;;;;;;9.89;72.10;100836.00;5010036;28;20484;-69
2021/04/13 07:39:04;;;;;;;0.80;0.80;;;;;;;9.69;72.88;100841.94;4983056;28;20087;-68
2021/04/13 07:41:56;;;;;;;0.75;0.75;;;;;;;9.46;72.63;100842.81;5007253;28;20832;-68
2021/04/13 07:44:29;;;;;;;1.00;0.98;;;;;;;9.48;73.40;100848.81;5009966;28;20065;-68
2021/04/13 07:47:20;;;;;;;0.73;0.73;;;;;;;9.61;73.18;100838.81;5009790;28;20052;-68
2021/04/13 07:50:04;;;;;;;1.17;1.08;;;;;;;9.64;72.54;100846.47;4991500;28;20034;-68
2021/04/13 07:52:42;;;;;;;1.58;1.40;;;;;;;9.63;72.82;100845.63;5007356;28;20057;-68
2021/04/13 07:55:26;;;;;;;2.15;1.40;;;;;;;9.54;74.05;100851.19;5009160;28;20054;-69
2021/04/13 07:58:22;;;;;;;1.30;1.30;;;;;;;9.56;74.04;100864.16;5005822;28;20404;-70
2021/04/13 08:00:53;;;;;;;1.65;1.20;;;;;;;9.38;74.00;100853.50;5007764;28;20081;-68
2021/04/13 08:03:26;;;;;;;1.90;1.20;;;;;;;9.42;73.26;100862.88;5008005;28;20124;-68
2021/04/13 08:06:05;;;;;;;2.90;1.50;;;;;;;9.50;73.86;100867.81;5008725;28;20042;-68
2021/04/13 08:08:40;;;;;;;1.63;1.33;;;;;;;9.48;73.14;100873.97;5010252;28;20057;-67
2021/04/13 08:11:31;;;;;;;1.70;1.60;;;;;;;9.55;73.54;100875.47;5006807;28;20046;-67
2021/04/13 08:14:18;;;;;;;1.80;1.70;;;;;;;9.43;73.84;100877.59;5005026;28;20069;-67
2021/04/13 08:16:45;;;;;;;1.17;1.10;;;;;;;9.30;73.83;100878.06;5008352;28;20507;-69
2021/04/13 08:19:31;;;;;;;1.92;1.83;;;;;;;9.23;74.08;100892.19;5007290;28;20087;-68
2021/04/13 08:22:10;;;;;;;3.03;2.83;;;;;;;9.30;74.82;100891.94;5008950;28;20170;-69
2021/04/13 08:24:46;;;;;;;2.90;2.67;;;;;;;9.32;75.14;100895.34;5007268;28;20185;-70
2021/04/13 08:27:47;;;;;;;3.08;2.25;;;;;;;9.43;74.19;100903.63;4988861;28;20042;-69
2021/04/13 08:30:44;;;;;;;4.15;2.10;;;;;;;9.41;74.11;100910.63;4988362;28;20046;-69
2021/04/13 08:33:35;;;;;;;3.45;3.15;;;;;;;9.54;72.75;100913.66;4989628;28;20074;-68
2021/04/13 08:36:28;;;;;;;2.83;2.63;;;;;;;9.59;73.16;100913.50;4999615;28;20060;-69
2021/04/13 08:39:06;;;;;;;6.07;2.85;;;;;;;9.71;72.54;100923.47;5008240;28;20081;-69
2021/04/13 08:41:44;;;;;;;4.93;2.00;;;;;;;9.49;73.36;100912.13;5009832;28;20042;-69
2021/04/13 08:44:54;;;;;;;2.55;1.50;;;;;;;9.54;73.55;100926.69;5009866;28;20091;-68
2021/04/13 08:47:39;;;;;;;1.65;1.55;;;;;;;9.53;74.84;100929.31;4898873;28;20489;-67
2021/04/13 08:50:40;;;;;;;1.00;1.00;;;;;;;9.25;75.00;100930.25;4941949;28;20148;-68
2021/04/13 08:53:29;;;;;;;0.82;0.82;;;;;;;9.32;74.39;100929.16;5010820;28;20096;-67
2021/04/13 08:56:11;;;;;;;0.90;0.90;;;;;;;9.15;74.25;100934.06;5010826;28;20121;-73
2021/04/13 08:58:40;;;;;;;0.98;0.90;;;;;;;8.97;75.63;100932.94;5004131;28;20103;-73
2021/04/13 09:01:23;;;;;;;1.10;1.00;;;;;;;8.96;76.98;100940.78;5009686;28;20095;-77
2021/04/13 09:03:50;;;;;;;1.25;0.90;;;;;;;8.86;76.60;100940.22;5010265;28;20074;-79
2021/04/13 09:06:28;;;;;;;0.90;0.90;;;;;;;8.77;77.71;100949.16;5011248;28;20061;-75
2021/04/13 09:09:01;;;;;;;1.20;1.10;;;;;;;8.72;77.62;100956.25;5010963;28;20132;-76
2021/04/13 09:11:50;;;;;;;2.25;1.08;;;;;;;8.75;77.12;100956.16;5008412;28;20129;-77
2021/04/13 09:14:32;;;;;;;1.00;1.00;;;;;;;8.63;77.52;100959.16;5021401;28;20069;-77
2021/04/13 09:17:07;;;;;;;2.20;1.25;;;;;;;8.80;77.68;100963.81;5009164;28;20123;-79
2021/04/13 09:19:40;;;;;;;1.00;1.00;;;;;;;8.78;77.70;100965.59;5010013;28;20042;-78
2021/04/13 09:22:45;;;;;;;1.20;1.00;;;;;;;8.84;77.60;100965.41;5010469;28;20124;-76
2021/04/13 09:25:24;;;;;;;1.10;1.00;;;;;;;8.77;76.62;100964.75;4987042;28;20538;-78
2021/04/13 09:28:20;;;;;;;2.58;1.08;;;;;;;8.72;76.68;100974.44;5010254;28;20412;-79
2021/04/13 09:31:00;;;;;;;2.58;1.13;;;;;;;8.80;76.37;100979.41;4991414;28;20137;-75
2021/04/13 09:33:38;;;;;;;7.18;1.20;;;;;;;8.61;77.68;100984.31;4992510;28;20046;-77
2021/04/13 09:36:20;;;;;;;1.00;0.90;;;;;;;8.64;76.28;100984.22;5009010;28;20584;-75
2021/04/13 09:39:07;;;;;;;0.98;0.90;;;;;;;8.62;76.43;100986.84;5009755;28;20133;-78
2021/04/13 09:41:57;;;;;;;0.85;0.85;;;;;;;8.66;75.69;100987.63;5009172;28;20125;-75
2021/04/13 09:44:52;;;;;;;0.95;0.90;;;;;;;8.75;76.02;100996.91;5008402;28;20046;-78
2021/04/13 09:47:56;;;;;;;1.10;1.10;;;;;;;8.69;77.07;100987.53;5010511;28;20076;-75
2021/04/13 09:50:41;;;;;;;0.90;0.90;;;;;;;8.66;76.97;100993.66;5008600;28;20300;-76
2021/04/13 09:54:06;;;;;;;1.10;1.10;;;;;;;8.91;76.31;100992.94;5010497;28;20053;-81
2021/04/13 09:56:35;;;;;;;1.17;1.10;;;;;;;8.90;76.11;100999.88;4961006;28;20046;-77
2021/04/13 09:59:27;;;;;;;0.90;0.90;;;;;;;8.86;76.98;100998.28;4994716;28;20050;-75
2021/04/13 10:02:46;;;;;;;1.25;1.15;;;;;;;8.54;76.99;101001.00;5008713;28;20111;-76
2021/04/13 10:05:16;;;;;;;0.93;0.93;;;;;;;8.93;76.76;101007.56;5008444;28;20050;-79
2021/04/13 10:08:14;;;;;;;1.00;1.00;;;;;;;9.08;75.74;101003.66;5006648;28;20133;-81
2021/04/13 10:10:56;;;;;;;1.90;1.20;;;;;;;9.25;74.98;101010.91;4990050;28;20058;-79
2021/04/13 10:13:40;;;;;;;1.00;1.00;;;;;;;8.81;75.13;101007.97;5008921;28;20042;-78
2021/04/13 10:16:34;;;;;;;1.33;1.25;;;;;;;9.00;75.13;101004.78;5010016;28;20382;-75
2021/04/13 10:19:10;;;;;;;1.20;1.15;;;;;;;9.11;74.86;101008.75;5009866;28;20046;-78
2021/04/13 10:22:03;;;;;;;3.35;1.10;;;;;;;8.88;74.86;101006.00;5007902;28;20074;-73
2021/04/13 10:24:48;;;;;;;1.20;1.10;;;;;;;8.81;75.65;101005.34;5009578;28;20551;-75
2021/04/13 10:27:36;;;;;;;1.50;1.40;;;;;;;9.00;75.63;101007.38;5009303;28;20437;-77
2021/04/13 10:30:09;;;;;;;7.45;1.17;;;;;;;9.03;75.72;101009.91;5004847;28;20100;-75
2021/04/13 10:32:57;;;;;;;1.00;1.00;;;;;;;9.09;75.48;101007.09;4989068;28;20057;-77
2021/04/13 10:35:36;;;;;;;1.60;1.45;;;;;;;9.06;74.73;101009.81;4995969;28;20046;-78
2021/04/13 10:38:32;;;;;;;1.50;1.20;;;;;;;9.11;75.37;101007.91;5008519;28;20042;-75
2021/04/13 10:41:04;;;;;;;;;;;;;;;9.11;72.98;101016.56;5006771;28;20079;-80
2021/04/13 10:43:39;;;;;;;1.00;1.00;;;;;;;9.19;74.41;101004.16;5008529;28;20392;-74
2021/04/13 10:46:09;;;;;;;1.73;1.10;;;;;;;8.97;72.32;101012.69;5009578;28;20050;-79
2021/04/13 10:49:02;;;;;;;1.23;1.13;;;;;;;9.07;72.81;101011.50;5008515;28;20114;-79
2021/04/13 10:51:54;;;;;;;1.10;1.10;;;;;;;9.04;73.17;101009.00;5008338;28;20125;-79
2021/04/13 10:54:39;;;;;;;1.10;1.10;;;;;;;9.07;73.30;101012.34;5008897;28;20046;-79
2021/04/13 10:57:17;;;;;;;1.33;1.05;;;;;;;9.00;75.03;101015.19;5006183;28;20469;-74
2021/04/13 10:59:50;;;;;;;1.42;1.33;;;;;;;9.28;73.59;101012.56;5005730;28;20073;-75
2021/04/13 11:02:54;;;;;;;1.45;1.00;;;;;;;9.12;70.77;101012.22;5007776;28;20070;-76
2021/04/13 11:05:41;;;;;;;3.22;1.10;;;;;;;9.19;72.22;101024.13;5007888;28;20120;-77
2021/04/13 11:08:55;;;;;;;0.98;0.95;;;;;;;8.80;71.97;101016.66;5009252;28;20045;-78
2021/04/13 11:11:33;;;;;;;1.02;1.00;;;;;;;9.05;72.26;101019.34;5040454;28;20079;-77
2021/04/13 11:14:35;;;;;;;0.88;0.88;;;;;;;9.23;71.52;101014.47;5006785;28;20094;-78
2021/04/13 11:17:39;;;;;;;1.55;1.35;;;;;;;9.23;71.88;101015.31;5007574;28;20050;-80
2021/04/13 11:20:44;;;;;;;1.00;1.00;;;;;;;9.36;71.28;101015.75;5008444;28;20511;-75
2021/04/13 11:23:41;;;;;;;1.15;1.15;;;;;;;9.29;71.95;101009.91;4949007;28;20134;-78
2021/04/13 11:26:33;;;;;;;1.45;1.02;;;;;;;9.12;71.80;101018.25;4995037;28;20074;-78
2021/04/13 11:29:49;;;;;;;3.20;1.55;;;;;;;9.21;70.64;101017.09;4993261;28;20111;-77
2021/04/13 11:32:43;;;;;;;1.23;1.13;;;;;;;9.02;70.51;101016.84;4985568;28;20046;-73
2021/04/13 11:35:19;;;;;;;1.77;1.67;;;;;;;8.90;70.68;101017.25;4988194;28;20053;-76
2021/04/13 11:38:16;;;;;;;3.83;1.73;;;;;;;9.15;71.14;101012.09;4990056;28;20043;-76
2021/04/13 11:41:20;;;;;;;1.02;1.02;;;;;;;9.20;70.13;101015.41;5004819;28;20046;-73
2021/04/13 11:44:00;;;;;;;1.20;1.10;;;;;;;9.29;71.67;101014.28;4995704;28;20561;-75
2021/04/13 11:46:42;;;;;;;1.30;1.20;;;;;;;9.23;72.87;101012.72;5002329;28;20488;-76
2021/04/13 11:49:53;;;;;;;2.70;1.50;;;;;;;9.16;73.62;101014.66;4995346;28;20065;-76
2021/04/13 11:52:35;;;;;;;3.25;1.85;;;;;;;9.16;73.41;101013.78;5072934;28;20129;-76
2021/04/13 11:55:02;;;;;;;1.42;1.33;;;;;;;9.08;74.05;101021.00;4992755;28;20073;-76
2021/04/13 11:57:35;;;;;;;1.52;1.42;;;;;;;9.29;74.33;101022.06;4993684;28;20045;-74
2021/04/13 12:00:10;;;;;;;1.92;1.63;;;;;;;9.15;74.41;101014.69;4991295;28;20049;-74
2021/04/13 12:02:43;;;;;;;1.30;1.20;;;;;;;9.05;74.06;101021.94;4990449;28;20114;-75
2021/04/13 12:05:49;;;;;;;1.40;1.30;;;;;;;9.11;73.81;101026.13;4988844;28;20053;-76
2021/04/13 12:08:46;;;;;;;2.60;1.13;;;;;;;9.18;72.52;101032.81;4989191;28;20133;-73
2021/04/13 12:11:16;;;;;;;1.50;1.40;;;;;;;9.03;72.65;101033.28;4988844;28;20057;-74
2021/04/13 12:13:50;;;;;;;1.40;1.30;;;;;;;9.07;72.68;101029.72;4993181;28;20103;-76
2021/04/13 12:16:41;;;;;;;1.27;1.20;;;;;;;9.04;73.53;101035.84;5010716;28;20044;-72
2021/04/13 12:19:17;;;;;;;1.20;1.20;;;;;;;9.08;73.10;101034.84;4997902;28;20381;-76
2021/04/13 12:21:52;;;;;;;1.35;1.23;;;;;;;9.13;72.87;101024.31;4997065;28;20050;-76